Aviation Digital Data Service (ADDS)

Output produced by TAFs form (0259 UTC 21 January 2018)
found at http://www.aviationweather.gov/adds/tafs/
 
KPIT 210234Z 2103/2206 24006KT P6SM FEW250 
     FM210400 23006KT P6SM BKN025 
     FM210700 23005KT 5SM BR OVC015 
     FM211000 22005KT 3SM -DZ OVC008 
     FM211500 21005KT P6SM VCSH OVC010
       
KAGC 202325Z 2100/2124 24006KT P6SM FEW250 
     FM210500 23006KT P6SM BKN025 
     FM210700 23005KT 5SM BR OVC015 
     FM211000 22005KT 3SM -DZ OVC008 
     FM211500 21005KT P6SM VCSH OVC010
       
KBVI 202325Z 2100/2124 24006KT P6SM FEW250 
     FM210500 23006KT P6SM BKN025 
     FM210700 23005KT 5SM BR OVC015 
     FM211000 22005KT 3SM -DZ OVC008 
     FM211500 21005KT P6SM VCSH OVC010 AMD NOT SKED
       
KDUJ 202325Z 2100/2124 24008KT P6SM SCT200 
     FM210700 26007KT P6SM BKN020 
     FM210800 26007KT P6SM BKN015 
     FM211100 24005KT 5SM -DZ OVC008
       
KFKL 202325Z 2100/2124 23009KT P6SM FEW200 
     FM210600 24006KT P6SM BKN025 
     FM210700 24005KT P6SM BKN015 
     FM210900 23005KT 5SM BR OVC008 
     FM211100 22005KT 5SM -DZ OVC008
       
KHLG 202325Z 2100/2124 24006KT P6SM FEW250 
     FM210300 23006KT P6SM BKN025 
     FM210600 23005KT 5SM BR OVC015 
     FM210900 22005KT 3SM -DZ OVC008 
     FM211500 21005KT P6SM VCSH OVC010
       
KLBE 202325Z 2100/2124 25008KT P6SM FEW200 
     FM210600 25009KT P6SM BKN025 
     FM210800 25008KT P6SM OVC015 
     FM210900 24008KT 5SM BR OVC010 
     FM211100 24007KT 3SM -DZ OVC008 
     FM211500 21005KT P6SM VCSH OVC010
       
KMGW 202325Z 2100/2124 23008KT P6SM FEW200 
     FM210400 23007KT P6SM OVC020 
     FM210600 23007KT 5SM BR OVC015 
     FM211000 22007KT P6SM VCSH OVC015
       
KZZV 210235Z 2103/2124 22008KT P6SM BKN025 
     FM210400 23006KT P6SM OVC015 
     FM210700 20006KT 4SM BR VCSH BKN008 
     FM211200 20005KT 3SM -DZ OVC010 
     FM211500 21005KT P6SM VCSH OVC015